Terminal Aerodrome Forecast
Issued by NWS

Home | Current Version | Previous Version | Text Only | Print | Product List | Glossary On
Versions: 1 2 3 4 5 6 7 8 9 10 11 12
000
FTUS45 KABQ 101700
TAFROW
TAF
KROW 101732Z 1018/1118 16011KT P6SM SCT150
     FM102000 16011G21KT P6SM SCT080
     FM110200 16010KT P6SM SCT150
     FM111100 15007KT P6SM FEW020=

USA.gov is the U.S. government's official web portal to all federal, state and local government web resources and services.